Guilin, China
Current Conditions -  °F | °C
As of 6:00 AM on Sunday 26 Oct 2014 (Local Time) from ZGKL Reporting Station
Haze Haze  
Wind Chill: 64°   Ceiling: Unl
Heat Index: 64°   Visibility: 1.5mi
Dew Point: 63°   Wind: 2mph
Humidity: 94%   Direction: 280°W
Pressure: 30.03"   Gusts: NA
Location:  25.28°N, 110.28°E
Report Text: ZGKL 252200Z 28001MPS 2500 BR NSC 18/17 Q1017 NOSIG
Loading
Personal Weather Stations






























Interactive Weather Map
Tropical Storm Tracking
New forecast layout! Learn more

10-Day Weather Forecast

Advertisements
Track Severe Weather on mobile